sensor_id;sensor_type;location;lat;lon;timestamp;pressure;altitude;pressure_sealevel;temperature;humidity
43503;BME280;29098;48.184;16.298;2022-08-03T00:01:40;99536.13;;;19.85;76.57
43503;BME280;29098;48.184;16.298;2022-08-03T00:04:31;99542.38;;;19.91;76.68
43503;BME280;29098;48.184;16.298;2022-08-03T00:07:41;99543.22;;;19.79;77.04
43503;BME280;29098;48.184;16.298;2022-08-03T00:10:37;99535.44;;;19.78;76.75
43503;BME280;29098;48.184;16.298;2022-08-03T00:13:42;99540.47;;;19.74;77.33
43503;BME280;29098;48.184;16.298;2022-08-03T00:16:29;99553.50;;;19.70;77.04
43503;BME280;29098;48.184;16.298;2022-08-03T00:19:54;99557.78;;;19.71;77.20
43503;BME280;29098;48.184;16.298;2022-08-03T00:23:10;99540.84;;;19.66;77.46
43503;BME280;29098;48.184;16.298;2022-08-03T00:26:11;99545.97;;;19.55;78.25
43503;BME280;29098;48.184;16.298;2022-08-03T00:29:20;99538.28;;;19.59;77.80
43503;BME280;29098;48.184;16.298;2022-08-03T00:32:27;99548.97;;;19.59;78.02
43503;BME280;29098;48.184;16.298;2022-08-03T00:35:18;99531.91;;;19.60;77.96
43503;BME280;29098;48.184;16.298;2022-08-03T00:38:23;99535.41;;;19.49;77.99
43503;BME280;29098;48.184;16.298;2022-08-03T00:41:30;99534.53;;;19.31;79.30
43503;BME280;29098;48.184;16.298;2022-08-03T00:44:40;99548.44;;;19.33;79.43
43503;BME280;29098;48.184;16.298;2022-08-03T00:47:48;99543.59;;;19.30;79.81
43503;BME280;29098;48.184;16.298;2022-08-03T00:50:44;99534.53;;;19.31;79.24
43503;BME280;29098;48.184;16.298;2022-08-03T00:53:17;99552.63;;;19.29;79.32
43503;BME280;29098;48.184;16.298;2022-08-03T00:56:47;99533.72;;;19.19;79.82
43503;BME280;29098;48.184;16.298;2022-08-03T00:59:34;99544.28;;;19.13;80.18
43503;BME280;29098;48.184;16.298;2022-08-03T01:02:28;99543.34;;;19.08;81.01
43503;BME280;29098;48.184;16.298;2022-08-03T01:05:46;99533.00;;;19.11;80.36
43503;BME280;29098;48.184;16.298;2022-08-03T01:09:11;99540.34;;;19.04;80.74
43503;BME280;29098;48.184;16.298;2022-08-03T01:12:27;99548.59;;;19.14;80.58
43503;BME280;29098;48.184;16.298;2022-08-03T01:15:45;99527.69;;;19.11;80.60
43503;BME280;29098;48.184;16.298;2022-08-03T01:21:53;99540.22;;;19.23;79.77
43503;BME280;29098;48.184;16.298;2022-08-03T01:25:24;99541.16;;;19.05;80.86
43503;BME280;29098;48.184;16.298;2022-08-03T01:31:47;99529.84;;;18.90;81.37
43503;BME280;29098;48.184;16.298;2022-08-03T01:35:00;99521.72;;;18.73;82.34
43503;BME280;29098;48.184;16.298;2022-08-03T01:38:14;99533.91;;;18.57;82.75
43503;BME280;29098;48.184;16.298;2022-08-03T01:41:09;99538.91;;;18.78;82.29
43503;BME280;29098;48.184;16.298;2022-08-03T01:44:02;99522.66;;;18.79;82.12
43503;BME280;29098;48.184;16.298;2022-08-03T01:47:06;99527.66;;;18.87;81.35
43503;BME280;29098;48.184;16.298;2022-08-03T01:50:18;99532.06;;;18.70;81.70
43503;BME280;29098;48.184;16.298;2022-08-03T01:52:55;99525.75;;;18.52;83.05
43503;BME280;29098;48.184;16.298;2022-08-03T01:56:06;99524.47;;;18.55;82.76
43503;BME280;29098;48.184;16.298;2022-08-03T01:58:50;99517.75;;;18.52;82.63
43503;BME280;29098;48.184;16.298;2022-08-03T02:01:46;99536.00;;;18.55;82.84
43503;BME280;29098;48.184;16.298;2022-08-03T02:04:51;99526.25;;;18.61;83.38
43503;BME280;29098;48.184;16.298;2022-08-03T02:07:44;99522.78;;;18.60;82.37
43503;BME280;29098;48.184;16.298;2022-08-03T02:11:03;99531.22;;;18.57;83.12
43503;BME280;29098;48.184;16.298;2022-08-03T02:14:11;99527.75;;;18.57;83.15
43503;BME280;29098;48.184;16.298;2022-08-03T02:17:37;99517.06;;;18.45;83.54
43503;BME280;29098;48.184;16.298;2022-08-03T02:20:49;99505.78;;;18.43;83.39
43503;BME280;29098;48.184;16.298;2022-08-03T02:23:59;99513.44;;;18.51;82.42
43503;BME280;29098;48.184;16.298;2022-08-03T02:27:45;99525.53;;;18.54;83.35
43503;BME280;29098;48.184;16.298;2022-08-03T02:30:55;99522.50;;;18.50;82.90
43503;BME280;29098;48.184;16.298;2022-08-03T02:34:07;99514.50;;;18.62;82.15
43503;BME280;29098;48.184;16.298;2022-08-03T02:37:13;99521.22;;;18.41;82.75
43503;BME280;29098;48.184;16.298;2022-08-03T02:40:24;99516.47;;;18.43;83.36
43503;BME280;29098;48.184;16.298;2022-08-03T02:43:24;99523.19;;;18.45;83.59
43503;BME280;29098;48.184;16.298;2022-08-03T02:46:54;99520.09;;;18.48;83.03
43503;BME280;29098;48.184;16.298;2022-08-03T02:49:48;99525.06;;;18.45;83.14
43503;BME280;29098;48.184;16.298;2022-08-03T02:52:56;99525.00;;;18.33;83.52
43503;BME280;29098;48.184;16.298;2022-08-03T02:56:23;99527.81;;;18.38;83.48
43503;BME280;29098;48.184;16.298;2022-08-03T02:59:32;99536.38;;;18.28;83.67
43503;BME280;29098;48.184;16.298;2022-08-03T03:02:14;99535.00;;;18.26;84.20
43503;BME280;29098;48.184;16.298;2022-08-03T03:05:23;99515.47;;;18.13;84.01
43503;BME280;29098;48.184;16.298;2022-08-03T03:08:25;99524.88;;;17.97;84.96
43503;BME280;29098;48.184;16.298;2022-08-03T03:11:37;99526.47;;;18.05;85.08
43503;BME280;29098;48.184;16.298;2022-08-03T03:14:29;99518.59;;;18.10;84.46
43503;BME280;29098;48.184;16.298;2022-08-03T03:17:44;99524.38;;;18.07;84.46
43503;BME280;29098;48.184;16.298;2022-08-03T03:20:21;99537.84;;;18.12;84.20
43503;BME280;29098;48.184;16.298;2022-08-03T03:23:48;99531.69;;;18.12;83.89
43503;BME280;29098;48.184;16.298;2022-08-03T03:26:53;99544.09;;;18.06;84.24
43503;BME280;29098;48.184;16.298;2022-08-03T03:30:02;99542.50;;;18.17;84.08
43503;BME280;29098;48.184;16.298;2022-08-03T03:33:23;99549.84;;;18.03;84.76
43503;BME280;29098;48.184;16.298;2022-08-03T03:36:16;99542.97;;;17.95;85.33
43503;BME280;29098;48.184;16.298;2022-08-03T03:38:51;99548.78;;;17.92;84.84
43503;BME280;29098;48.184;16.298;2022-08-03T03:41:34;99549.78;;;18.10;84.50
43503;BME280;29098;48.184;16.298;2022-08-03T03:44:44;99548.72;;;17.80;85.82
43503;BME280;29098;48.184;16.298;2022-08-03T03:47:36;99545.94;;;17.87;85.62
43503;BME280;29098;48.184;16.298;2022-08-03T03:50:31;99547.06;;;17.79;85.88
43503;BME280;29098;48.184;16.298;2022-08-03T03:53:22;99553.38;;;17.66;86.33
43503;BME280;29098;48.184;16.298;2022-08-03T03:56:49;99551.97;;;17.63;86.37
43503;BME280;29098;48.184;16.298;2022-08-03T03:59:40;99546.63;;;17.82;85.73
43503;BME280;29098;48.184;16.298;2022-08-03T04:02:12;99550.88;;;17.71;86.43
43503;BME280;29098;48.184;16.298;2022-08-03T04:04:47;99560.50;;;17.72;86.49
43503;BME280;29098;48.184;16.298;2022-08-03T04:08:16;99557.44;;;17.69;86.77
43503;BME280;29098;48.184;16.298;2022-08-03T04:11:28;99561.22;;;17.79;86.29
43503;BME280;29098;48.184;16.298;2022-08-03T04:14:21;99554.25;;;17.78;86.18
43503;BME280;29098;48.184;16.298;2022-08-03T04:17:30;99555.88;;;17.79;85.56
43503;BME280;29098;48.184;16.298;2022-08-03T04:20:37;99556.03;;;17.85;85.22
43503;BME280;29098;48.184;16.298;2022-08-03T04:23:27;99564.16;;;17.90;85.09
43503;BME280;29098;48.184;16.298;2022-08-03T04:26:22;99563.06;;;17.79;85.13
43503;BME280;29098;48.184;16.298;2022-08-03T04:29:28;99561.13;;;17.86;85.30
43503;BME280;29098;48.184;16.298;2022-08-03T04:32:21;99567.75;;;17.84;85.08
43503;BME280;29098;48.184;16.298;2022-08-03T04:35:19;99582.25;;;18.06;84.31
43503;BME280;29098;48.184;16.298;2022-08-03T04:38:32;99584.00;;;18.13;83.50
43503;BME280;29098;48.184;16.298;2022-08-03T04:41:19;99590.88;;;18.02;83.62
43503;BME280;29098;48.184;16.298;2022-08-03T04:44:30;99575.44;;;17.92;84.35
43503;BME280;29098;48.184;16.298;2022-08-03T04:47:37;99577.34;;;18.03;84.48
43503;BME280;29098;48.184;16.298;2022-08-03T04:50:32;99594.81;;;18.18;83.67
43503;BME280;29098;48.184;16.298;2022-08-03T04:53:41;99580.06;;;18.15;83.23
43503;BME280;29098;48.184;16.298;2022-08-03T04:56:28;99575.81;;;18.26;83.23
43503;BME280;29098;48.184;16.298;2022-08-03T04:59:18;99592.31;;;18.23;83.73
43503;BME280;29098;48.184;16.298;2022-08-03T05:02:14;99585.59;;;18.32;82.71
43503;BME280;29098;48.184;16.298;2022-08-03T05:05:11;99591.91;;;18.50;81.43
43503;BME280;29098;48.184;16.298;2022-08-03T05:08:23;99596.44;;;18.50;82.25
43503;BME280;29098;48.184;16.298;2022-08-03T05:11:49;99588.19;;;18.51;81.98
43503;BME280;29098;48.184;16.298;2022-08-03T05:15:01;99600.84;;;18.56;81.33
43503;BME280;29098;48.184;16.298;2022-08-03T05:18:27;99587.06;;;18.59;80.97
43503;BME280;29098;48.184;16.298;2022-08-03T05:21:33;99612.66;;;18.90;79.71
43503;BME280;29098;48.184;16.298;2022-08-03T05:24:26;99592.66;;;18.81;81.07
43503;BME280;29098;48.184;16.298;2022-08-03T05:27:56;99607.13;;;19.04;79.87
43503;BME280;29098;48.184;16.298;2022-08-03T05:30:49;99596.88;;;19.01;79.31
43503;BME280;29098;48.184;16.298;2022-08-03T05:34:01;99597.97;;;19.24;78.61
43503;BME280;29098;48.184;16.298;2022-08-03T05:36:56;99599.59;;;19.25;79.21
43503;BME280;29098;48.184;16.298;2022-08-03T05:40:04;99604.59;;;19.33;76.71
43503;BME280;29098;48.184;16.298;2022-08-03T05:43:13;99597.81;;;19.42;75.90
43503;BME280;29098;48.184;16.298;2022-08-03T05:46:16;99604.91;;;19.61;75.99
43503;BME280;29098;48.184;16.298;2022-08-03T05:49:04;99599.91;;;19.64;75.76
43503;BME280;29098;48.184;16.298;2022-08-03T05:51:54;99622.81;;;19.72;75.30
43503;BME280;29098;48.184;16.298;2022-08-03T05:54:44;99615.69;;;19.78;75.25
43503;BME280;29098;48.184;16.298;2022-08-03T05:57:36;99612.66;;;19.86;75.16
43503;BME280;29098;48.184;16.298;2022-08-03T06:00:42;99597.28;;;19.93;74.21
43503;BME280;29098;48.184;16.298;2022-08-03T06:04:09;99601.06;;;20.09;73.15
43503;BME280;29098;48.184;16.298;2022-08-03T06:07:17;99604.13;;;20.30;72.88
43503;BME280;29098;48.184;16.298;2022-08-03T06:09:51;99602.84;;;20.33;73.40
43503;BME280;29098;48.184;16.298;2022-08-03T06:13:06;99588.34;;;20.46;71.97
43503;BME280;29098;48.184;16.298;2022-08-03T06:15:55;99589.34;;;20.57;71.60
43503;BME280;29098;48.184;16.298;2022-08-03T06:18:43;99596.16;;;20.64;72.08
43503;BME280;29098;48.184;16.298;2022-08-03T06:22:05;99600.41;;;20.77;69.84
43503;BME280;29098;48.184;16.298;2022-08-03T06:24:40;99604.66;;;20.90;68.66
43503;BME280;29098;48.184;16.298;2022-08-03T06:27:30;99601.13;;;21.07;66.22
43503;BME280;29098;48.184;16.298;2022-08-03T06:30:18;99604.13;;;21.11;66.31
43503;BME280;29098;48.184;16.298;2022-08-03T06:32:56;99606.91;;;21.16;65.93
43503;BME280;29098;48.184;16.298;2022-08-03T06:35:54;99605.44;;;21.25;65.75
43503;BME280;29098;48.184;16.298;2022-08-03T06:38:41;99620.03;;;21.34;65.84
43503;BME280;29098;48.184;16.298;2022-08-03T06:41:37;99594.50;;;21.32;66.17
43503;BME280;29098;48.184;16.298;2022-08-03T06:44:43;99604.91;;;21.45;65.90
43503;BME280;29098;48.184;16.298;2022-08-03T06:48:12;99612.06;;;21.62;65.25
43503;BME280;29098;48.184;16.298;2022-08-03T06:50:47;99615.06;;;21.66;65.40
43503;BME280;29098;48.184;16.298;2022-08-03T06:53:53;99603.19;;;21.79;64.61
43503;BME280;29098;48.184;16.298;2022-08-03T06:57:00;99605.56;;;21.97;63.52
43503;BME280;29098;48.184;16.298;2022-08-03T06:59:37;99611.28;;;22.06;63.46
43503;BME280;29098;48.184;16.298;2022-08-03T07:02:57;99596.84;;;22.12;64.02
43503;BME280;29098;48.184;16.298;2022-08-03T07:05:33;99614.00;;;22.34;60.40
43503;BME280;29098;48.184;16.298;2022-08-03T07:08:07;99621.31;;;22.38;59.38
43503;BME280;29098;48.184;16.298;2022-08-03T07:10:53;99610.47;;;22.55;57.93
43503;BME280;29098;48.184;16.298;2022-08-03T07:13:25;99617.25;;;22.63;58.08
43503;BME280;29098;48.184;16.298;2022-08-03T07:16:32;99612.34;;;22.88;57.19
43503;BME280;29098;48.184;16.298;2022-08-03T07:19:18;99619.75;;;23.08;57.80
43503;BME280;29098;48.184;16.298;2022-08-03T07:21:52;99623.72;;;23.33;57.09
43503;BME280;29098;48.184;16.298;2022-08-03T07:24:38;99612.22;;;23.48;56.81
43503;BME280;29098;48.184;16.298;2022-08-03T07:28:05;99612.66;;;23.88;54.24
43503;BME280;29098;48.184;16.298;2022-08-03T07:31:16;99616.28;;;24.25;54.73
43503;BME280;29098;48.184;16.298;2022-08-03T07:33:45;99623.88;;;24.43;53.72
43503;BME280;29098;48.184;16.298;2022-08-03T07:36:58;99606.69;;;24.81;51.84
43503;BME280;29098;48.184;16.298;2022-08-03T07:40:15;99619.84;;;25.19;50.48
43503;BME280;29098;48.184;16.298;2022-08-03T07:43:04;99597.13;;;25.35;49.20
43503;BME280;29098;48.184;16.298;2022-08-03T07:46:12;99600.56;;;25.67;48.04
43503;BME280;29098;48.184;16.298;2022-08-03T07:49:22;99601.09;;;25.69;49.02
43503;BME280;29098;48.184;16.298;2022-08-03T07:52:37;99596.38;;;25.95;47.21
43503;BME280;29098;48.184;16.298;2022-08-03T07:55:38;99583.94;;;25.99;46.89
43503;BME280;29098;48.184;16.298;2022-08-03T07:58:25;99594.00;;;26.34;45.72
43503;BME280;29098;48.184;16.298;2022-08-03T08:01:12;99597.53;;;26.69;44.80
43503;BME280;29098;48.184;16.298;2022-08-03T08:04:41;99613.66;;;26.79;44.76
43503;BME280;29098;48.184;16.298;2022-08-03T08:07:46;99589.34;;;27.09;43.00
43503;BME280;29098;48.184;16.298;2022-08-03T08:10:52;99608.34;;;27.28;42.08
43503;BME280;29098;48.184;16.298;2022-08-03T08:13:43;99605.38;;;27.30;41.22
43503;BME280;29098;48.184;16.298;2022-08-03T08:16:47;99612.88;;;27.62;41.75
43503;BME280;29098;48.184;16.298;2022-08-03T08:19:38;99609.59;;;27.85;41.19
43503;BME280;29098;48.184;16.298;2022-08-03T08:22:46;99592.19;;;27.72;40.27
43503;BME280;29098;48.184;16.298;2022-08-03T08:25:36;99612.38;;;27.99;40.71
43503;BME280;29098;48.184;16.298;2022-08-03T08:28:42;99612.31;;;28.04;39.69
43503;BME280;29098;48.184;16.298;2022-08-03T08:31:28;99605.78;;;27.67;40.23
43503;BME280;29098;48.184;16.298;2022-08-03T08:34:53;99587.84;;;27.22;41.35
43503;BME280;29098;48.184;16.298;2022-08-03T08:38:03;99587.09;;;26.92;42.29
43503;BME280;29098;48.184;16.298;2022-08-03T08:40:59;99588.34;;;26.70;43.13
43503;BME280;29098;48.184;16.298;2022-08-03T08:44:11;99607.88;;;26.62;43.58
43503;BME280;29098;48.184;16.298;2022-08-03T08:47:28;99597.94;;;26.52;44.19
43503;BME280;29098;48.184;16.298;2022-08-03T08:50:32;99597.53;;;26.69;42.70
43503;BME280;29098;48.184;16.298;2022-08-03T08:53:10;99600.75;;;26.36;42.75
43503;BME280;29098;48.184;16.298;2022-08-03T08:56:02;99605.34;;;26.36;42.71
43503;BME280;29098;48.184;16.298;2022-08-03T08:58:59;99597.72;;;26.43;42.46
43503;BME280;29098;48.184;16.298;2022-08-03T09:01:34;99605.31;;;26.41;42.57
43503;BME280;29098;48.184;16.298;2022-08-03T09:04:36;99608.50;;;26.48;42.17
43503;BME280;29098;48.184;16.298;2022-08-03T09:08:04;99594.28;;;26.67;41.74
43503;BME280;29098;48.184;16.298;2022-08-03T09:10:53;99602.47;;;26.62;39.91
43503;BME280;29098;48.184;16.298;2022-08-03T09:14:01;99591.41;;;26.88;40.79
43503;BME280;29098;48.184;16.298;2022-08-03T09:17:19;99591.03;;;26.70;41.69
43503;BME280;29098;48.184;16.298;2022-08-03T09:20:11;99597.38;;;26.90;42.62
43503;BME280;29098;48.184;16.298;2022-08-03T09:23:49;99584.38;;;26.92;41.27
43503;BME280;29098;48.184;16.298;2022-08-03T09:26:59;99579.66;;;27.03;40.28
43503;BME280;29098;48.184;16.298;2022-08-03T09:30:17;99584.16;;;27.13;41.35
43503;BME280;29098;48.184;16.298;2022-08-03T09:33:26;99582.34;;;27.32;38.64
43503;BME280;29098;48.184;16.298;2022-08-03T09:39:45;99573.47;;;27.27;39.65
43503;BME280;29098;48.184;16.298;2022-08-03T09:42:35;99572.28;;;27.33;37.89
43503;BME280;29098;48.184;16.298;2022-08-03T09:45:25;99564.94;;;27.39;38.00
43503;BME280;29098;48.184;16.298;2022-08-03T09:48:38;99568.53;;;27.78;37.98
43503;BME280;29098;48.184;16.298;2022-08-03T09:51:45;99572.50;;;27.85;37.32
43503;BME280;29098;48.184;16.298;2022-08-03T09:55:13;99560.34;;;27.83;34.58
43503;BME280;29098;48.184;16.298;2022-08-03T09:57:44;99564.72;;;27.98;35.35
43503;BME280;29098;48.184;16.298;2022-08-03T10:01:21;99554.97;;;28.16;33.83
43503;BME280;29098;48.184;16.298;2022-08-03T10:04:02;99552.47;;;28.20;34.17
43503;BME280;29098;48.184;16.298;2022-08-03T10:07:09;99562.13;;;28.31;33.83
43503;BME280;29098;48.184;16.298;2022-08-03T10:09:37;99552.72;;;28.23;31.61
43503;BME280;29098;48.184;16.298;2022-08-03T10:12:30;99551.84;;;28.28;31.16
43503;BME280;29098;48.184;16.298;2022-08-03T10:15:08;99551.84;;;28.61;30.34
43503;BME280;29098;48.184;16.298;2022-08-03T10:18:16;99546.81;;;28.68;32.19
43503;BME280;29098;48.184;16.298;2022-08-03T10:21:03;99535.47;;;28.66;29.44
43503;BME280;29098;48.184;16.298;2022-08-03T10:24:01;99535.91;;;28.74;29.19
43503;BME280;29098;48.184;16.298;2022-08-03T10:27:05;99529.69;;;28.73;29.28
43503;BME280;29098;48.184;16.298;2022-08-03T10:30:11;99526.50;;;28.99;31.21
43503;BME280;29098;48.184;16.298;2022-08-03T10:35:44;99533.22;;;29.58;30.72
43503;BME280;29098;48.184;16.298;2022-08-03T10:38:53;99536.25;;;29.93;31.46
43503;BME280;29098;48.184;16.298;2022-08-03T10:42:02;99516.16;;;30.17;30.35
43503;BME280;29098;48.184;16.298;2022-08-03T10:45:28;99523.97;;;30.18;29.75
43503;BME280;29098;48.184;16.298;2022-08-03T10:48:47;99528.53;;;30.55;29.26
43503;BME280;29098;48.184;16.298;2022-08-03T10:51:21;99531.28;;;30.95;28.55
43503;BME280;29098;48.184;16.298;2022-08-03T11:00:48;99515.59;;;31.77;25.23
43503;BME280;29098;48.184;16.298;2022-08-03T11:10:28;99510.38;;;32.72;25.54
43503;BME280;29098;48.184;16.298;2022-08-03T11:13:30;99508.75;;;33.10;25.43
43503;BME280;29098;48.184;16.298;2022-08-03T11:16:26;99496.34;;;33.43;25.56
43503;BME280;29098;48.184;16.298;2022-08-03T11:19:50;99497.72;;;33.92;24.44
43503;BME280;29098;48.184;16.298;2022-08-03T11:22:49;99500.78;;;34.11;24.02
43503;BME280;29098;48.184;16.298;2022-08-03T11:26:11;99507.00;;;34.46;24.11
43503;BME280;29098;48.184;16.298;2022-08-03T11:29:29;99501.72;;;34.74;24.96
43503;BME280;29098;48.184;16.298;2022-08-03T11:35:59;99482.22;;;35.13;23.06
43503;BME280;29098;48.184;16.298;2022-08-03T11:39:44;99484.41;;;35.07;23.94
43503;BME280;29098;48.184;16.298;2022-08-03T11:45:08;99473.66;;;35.15;20.42
43503;BME280;29098;48.184;16.298;2022-08-03T11:47:54;99475.03;;;35.08;19.45
43503;BME280;29098;48.184;16.298;2022-08-03T11:50:44;99481.72;;;35.36;19.66
43503;BME280;29098;48.184;16.298;2022-08-03T11:53:59;99471.13;;;35.22;18.61
43503;BME280;29098;48.184;16.298;2022-08-03T11:57:07;99488.03;;;35.93;19.17
43503;BME280;29098;48.184;16.298;2022-08-03T11:59:44;99475.16;;;36.10;18.09
43503;BME280;29098;48.184;16.298;2022-08-03T12:02:14;99480.88;;;36.66;19.29
43503;BME280;29098;48.184;16.298;2022-08-03T12:05:32;99471.81;;;36.81;20.81
43503;BME280;29098;48.184;16.298;2022-08-03T12:08:41;99473.44;;;36.18;21.85
43503;BME280;29098;48.184;16.298;2022-08-03T12:11:28;99470.56;;;36.95;22.03
43503;BME280;29098;48.184;16.298;2022-08-03T12:14:21;99463.66;;;37.01;21.21
43503;BME280;29098;48.184;16.298;2022-08-03T12:17:07;99465.56;;;37.36;20.83
43503;BME280;29098;48.184;16.298;2022-08-03T12:19:59;99473.34;;;37.70;20.69
43503;BME280;29098;48.184;16.298;2022-08-03T12:22:53;99446.94;;;37.65;21.26
43503;BME280;29098;48.184;16.298;2022-08-03T12:26:23;99458.50;;;37.55;20.83
43503;BME280;29098;48.184;16.298;2022-08-03T12:29:20;99459.63;;;37.54;20.66
43503;BME280;29098;48.184;16.298;2022-08-03T12:31:52;99450.91;;;37.28;19.38
43503;BME280;29098;48.184;16.298;2022-08-03T12:35:01;99437.34;;;37.39;19.48
43503;BME280;29098;48.184;16.298;2022-08-03T12:38:12;99445.34;;;37.64;20.02
43503;BME280;29098;48.184;16.298;2022-08-03T12:41:25;99434.91;;;37.97;19.28
43503;BME280;29098;48.184;16.298;2022-08-03T12:44:08;99433.53;;;38.07;18.65
43503;BME280;29098;48.184;16.298;2022-08-03T12:47:17;99431.81;;;37.99;18.26
43503;BME280;29098;48.184;16.298;2022-08-03T12:50:36;99428.91;;;36.93;20.44
43503;BME280;29098;48.184;16.298;2022-08-03T12:54:00;99425.19;;;37.01;18.78
43503;BME280;29098;48.184;16.298;2022-08-03T12:57:14;99442.22;;;37.46;18.68
43503;BME280;29098;48.184;16.298;2022-08-03T13:00:32;99426.34;;;37.39;18.57
43503;BME280;29098;48.184;16.298;2022-08-03T13:03:19;99420.03;;;37.98;18.64
43503;BME280;29098;48.184;16.298;2022-08-03T13:06:15;99419.44;;;38.59;18.61
43503;BME280;29098;48.184;16.298;2022-08-03T13:09:14;99429.25;;;38.83;17.99
43503;BME280;29098;48.184;16.298;2022-08-03T13:12:12;99427.81;;;38.66;17.67
43503;BME280;29098;48.184;16.298;2022-08-03T13:15:30;99413.75;;;38.48;17.42
43503;BME280;29098;48.184;16.298;2022-08-03T13:18:12;99413.22;;;38.92;17.30
43503;BME280;29098;48.184;16.298;2022-08-03T13:21:19;99401.97;;;39.01;18.16
43503;BME280;29098;48.184;16.298;2022-08-03T13:24:11;99410.13;;;38.67;16.76
43503;BME280;29098;48.184;16.298;2022-08-03T13:27:00;99402.81;;;39.40;17.11
43503;BME280;29098;48.184;16.298;2022-08-03T13:29:52;99403.84;;;38.70;18.01
43503;BME280;29098;48.184;16.298;2022-08-03T13:32:39;99396.13;;;38.26;18.81
43503;BME280;29098;48.184;16.298;2022-08-03T13:35:28;99394.94;;;38.27;17.57
43503;BME280;29098;48.184;16.298;2022-08-03T13:38:15;99392.53;;;39.02;17.07
43503;BME280;29098;48.184;16.298;2022-08-03T13:41:05;99388.06;;;38.94;17.74
43503;BME280;29098;48.184;16.298;2022-08-03T13:44:05;99397.88;;;39.22;17.52
43503;BME280;29098;48.184;16.298;2022-08-03T13:47:20;99399.56;;;39.68;17.96
43503;BME280;29098;48.184;16.298;2022-08-03T13:50:17;99390.75;;;39.21;16.37
43503;BME280;29098;48.184;16.298;2022-08-03T13:53:04;99391.41;;;38.80;16.71
43503;BME280;29098;48.184;16.298;2022-08-03T13:56:13;99386.66;;;39.08;17.34
43503;BME280;29098;48.184;16.298;2022-08-03T13:59:19;99369.88;;;39.20;16.58
43503;BME280;29098;48.184;16.298;2022-08-03T14:02:24;99377.63;;;39.07;17.17
43503;BME280;29098;48.184;16.298;2022-08-03T14:05:36;99366.91;;;39.36;17.62
43503;BME280;29098;48.184;16.298;2022-08-03T14:08:47;99363.41;;;39.05;16.36
43503;BME280;29098;48.184;16.298;2022-08-03T14:12:02;99370.03;;;39.00;16.50
43503;BME280;29098;48.184;16.298;2022-08-03T14:15:10;99365.72;;;39.34;17.15
43503;BME280;29098;48.184;16.298;2022-08-03T14:18:08;99372.47;;;39.40;16.47
43503;BME280;29098;48.184;16.298;2022-08-03T14:21:18;99366.75;;;39.22;17.79
43503;BME280;29098;48.184;16.298;2022-08-03T14:24:04;99371.38;;;39.44;16.77
43503;BME280;29098;48.184;16.298;2022-08-03T14:26:53;99364.03;;;39.63;16.82
43503;BME280;29098;48.184;16.298;2022-08-03T14:30:01;99350.63;;;38.93;16.85
43503;BME280;29098;48.184;16.298;2022-08-03T14:32:51;99357.56;;;38.80;17.26
43503;BME280;29098;48.184;16.298;2022-08-03T14:35:38;99363.25;;;38.94;16.98
43503;BME280;29098;48.184;16.298;2022-08-03T14:38:25;99361.22;;;39.18;17.15
43503;BME280;29098;48.184;16.298;2022-08-03T14:41:13;99352.34;;;39.01;17.07
43503;BME280;29098;48.184;16.298;2022-08-03T14:44:23;99345.06;;;38.89;17.66
43503;BME280;29098;48.184;16.298;2022-08-03T14:47:35;99349.41;;;39.21;16.70
43503;BME280;29098;48.184;16.298;2022-08-03T14:50:48;99352.59;;;39.23;16.48
43503;BME280;29098;48.184;16.298;2022-08-03T14:54:13;99346.22;;;39.15;16.92
43503;BME280;29098;48.184;16.298;2022-08-03T14:57:21;99342.50;;;38.70;17.75
43503;BME280;29098;48.184;16.298;2022-08-03T15:00:28;99335.44;;;38.72;16.88
43503;BME280;29098;48.184;16.298;2022-08-03T15:03:39;99324.34;;;38.11;17.63
43503;BME280;29098;48.184;16.298;2022-08-03T15:06:24;99337.59;;;38.56;17.00
43503;BME280;29098;48.184;16.298;2022-08-03T15:08:51;99339.03;;;38.76;16.88
43503;BME280;29098;48.184;16.298;2022-08-03T15:12:19;99323.00;;;38.55;16.72
43503;BME280;29098;48.184;16.298;2022-08-03T15:15:28;99327.06;;;38.38;17.17
43503;BME280;29098;48.184;16.298;2022-08-03T15:18:55;99334.44;;;38.88;16.78
43503;BME280;29098;48.184;16.298;2022-08-03T15:21:57;99320.75;;;38.95;16.54
43503;BME280;29098;48.184;16.298;2022-08-03T15:24:49;99328.50;;;39.54;16.50
43503;BME280;29098;48.184;16.298;2022-08-03T15:27:57;99342.03;;;40.79;15.05
43503;BME280;29098;48.184;16.298;2022-08-03T15:31:22;99334.88;;;40.74;15.02
43503;BME280;29098;48.184;16.298;2022-08-03T15:34:24;99329.44;;;40.89;15.07
43503;BME280;29098;48.184;16.298;2022-08-03T15:36:52;99321.72;;;41.67;13.73
43503;BME280;29098;48.184;16.298;2022-08-03T15:40:02;99329.84;;;40.91;14.66
43503;BME280;29098;48.184;16.298;2022-08-03T15:42:39;99326.47;;;41.59;14.34
43503;BME280;29098;48.184;16.298;2022-08-03T15:45:26;99330.03;;;40.53;14.67
43503;BME280;29098;48.184;16.298;2022-08-03T15:48:14;99331.19;;;41.59;14.56
43503;BME280;29098;48.184;16.298;2022-08-03T15:51:24;99319.44;;;40.62;15.22
43503;BME280;29098;48.184;16.298;2022-08-03T15:54:10;99312.59;;;40.34;14.91
43503;BME280;29098;48.184;16.298;2022-08-03T15:57:18;99327.09;;;41.05;14.64
43503;BME280;29098;48.184;16.298;2022-08-03T16:00:39;99315.78;;;40.44;14.61
43503;BME280;29098;48.184;16.298;2022-08-03T16:03:32;99318.50;;;39.80;15.46
43503;BME280;29098;48.184;16.298;2022-08-03T16:06:26;99308.78;;;39.94;15.71
43503;BME280;29098;48.184;16.298;2022-08-03T16:09:27;99310.44;;;39.61;15.10
43503;BME280;29098;48.184;16.298;2022-08-03T16:12:50;99310.59;;;39.37;15.79
43503;BME280;29098;48.184;16.298;2022-08-03T16:15:36;99295.25;;;38.68;16.19
43503;BME280;29098;48.184;16.298;2022-08-03T16:18:26;99295.56;;;38.62;16.79
43503;BME280;29098;48.184;16.298;2022-08-03T16:21:23;99300.19;;;38.28;17.12